createdAt,value
2022-12-29T00:00:18.796Z,97564.75
2022-12-29T00:02:47.606Z,97570.44
2022-12-29T00:05:17.764Z,97581.97
2022-12-29T00:07:46.283Z,97569.16
2022-12-29T00:10:14.943Z,97566.75
2022-12-29T00:13:00.851Z,97570.97
2022-12-29T00:15:41.676Z,97565.34
2022-12-29T00:18:10.658Z,97564.03
2022-12-29T00:21:06.790Z,97566.72
2022-12-29T00:23:53.336Z,97551.38
2022-12-29T00:26:39.590Z,97552.88
2022-12-29T00:29:30.532Z,97557.69
2022-12-29T00:32:16.683Z,97532.06
2022-12-29T00:35:04.524Z,97550.63
2022-12-29T00:37:48.399Z,97548.91
2022-12-29T00:40:34.601Z,97553.31
2022-12-29T00:43:20.859Z,97541.97
2022-12-29T00:45:49.474Z,97548.41
2022-12-29T00:48:38.778Z,97537.13
2022-12-29T00:51:06.849Z,97544.91
2022-12-29T00:53:37.527Z,97542.78
2022-12-29T00:56:06.410Z,97545.56
2022-12-29T00:58:35.947Z,97537.97
2022-12-29T01:01:05.450Z,97546.06
2022-12-29T01:03:35.635Z,97545.25
2022-12-29T01:06:06.366Z,97542.84
2022-12-29T01:08:37.181Z,97555.44
2022-12-29T01:11:08.267Z,97545.56
2022-12-29T01:13:39.137Z,97544.16
2022-12-29T01:16:09.227Z,97540.97
2022-12-29T01:18:37.782Z,97529.53
2022-12-29T01:21:08.363Z,97541.34
2022-12-29T01:23:38.324Z,97544.19
2022-12-29T01:26:14.175Z,97546.16
2022-12-29T01:28:42.924Z,97531.72
2022-12-29T01:31:13.960Z,97538.97
2022-12-29T01:33:43.302Z,97535.38
2022-12-29T01:36:15.266Z,97529.09
2022-12-29T01:38:46.599Z,97526.84
2022-12-29T01:41:20.355Z,97515.75
2022-12-29T01:43:51.922Z,97526.50
2022-12-29T01:46:28.995Z,97542.31
2022-12-29T01:49:07.553Z,97537.22
2022-12-29T01:51:41.607Z,97510.09
2022-12-29T01:54:17.852Z,97512.63
2022-12-29T01:56:48.747Z,97529.59
2022-12-29T01:59:23.441Z,97509.44
2022-12-29T02:01:53.199Z,97508.59
2022-12-29T02:04:22.137Z,97513.09
2022-12-29T02:06:57.708Z,97509.31
2022-12-29T02:09:28.004Z,97518.56
2022-12-29T02:11:56.810Z,97506.28
2022-12-29T02:14:25.772Z,97509.78
2022-12-29T02:17:12.403Z,97507.09
2022-12-29T02:20:35.112Z,97492.63
2022-12-29T02:23:47.271Z,97494.53
2022-12-29T02:26:41.353Z,97490.00
2022-12-29T02:29:41.173Z,97486.84
2022-12-29T02:32:22.484Z,97488.91
2022-12-29T02:35:06.200Z,97495.53
2022-12-29T02:37:46.396Z,97486.47
2022-12-29T02:40:28.841Z,97498.50
2022-12-29T02:43:10.407Z,97492.72
2022-12-29T02:45:49.431Z,97487.53
2022-12-29T02:48:30.078Z,97516.22
2022-12-29T02:51:04.561Z,97505.91
2022-12-29T02:53:55.670Z,97487.66
2022-12-29T02:56:24.809Z,97499.66
2022-12-29T02:58:54.325Z,97490.13
2022-12-29T03:02:02.070Z,97470.19
2022-12-29T03:04:41.631Z,97469.09
2022-12-29T03:07:25.084Z,97472.09
2022-12-29T03:10:06.833Z,97459.84
2022-12-29T03:13:08.262Z,97478.84
2022-12-29T03:16:05.177Z,97466.31
2022-12-29T03:18:47.757Z,97446.81
2022-12-29T03:21:48.534Z,97458.81
2022-12-29T03:24:24.612Z,97455.41
2022-12-29T03:26:59.141Z,97442.41
2022-12-29T03:29:35.173Z,97457.47
2022-12-29T03:32:06.996Z,97460.06
2022-12-29T03:34:40.416Z,97452.31
2022-12-29T03:37:16.829Z,97436.88
2022-12-29T03:39:47.946Z,97447.41
2022-12-29T03:42:22.966Z,97433.38
2022-12-29T03:44:58.038Z,97428.06
2022-12-29T03:47:27.629Z,97436.13
2022-12-29T03:49:57.185Z,97421.94
2022-12-29T03:52:27.185Z,97434.75
2022-12-29T03:54:56.556Z,97433.59
2022-12-29T03:57:25.329Z,97431.84
2022-12-29T04:00:10.044Z,97429.78
2022-12-29T04:02:47.365Z,97434.25
2022-12-29T04:05:21.590Z,97449.06
2022-12-29T04:07:53.422Z,97441.97
2022-12-29T04:10:22.120Z,97443.69
2022-12-29T04:12:53.709Z,97437.22
2022-12-29T04:15:22.491Z,97441.38
2022-12-29T04:17:51.168Z,97435.41
2022-12-29T04:20:37.225Z,97442.75
2022-12-29T04:23:10.238Z,97441.09
2022-12-29T04:25:40.267Z,97432.31
2022-12-29T04:28:10.906Z,97437.91
2022-12-29T04:30:51.497Z,97433.91
2022-12-29T04:33:23.503Z,97434.84
2022-12-29T04:35:54.035Z,97438.56
2022-12-29T04:38:26.042Z,97443.66
2022-12-29T04:40:55.051Z,97438.00
2022-12-29T04:43:25.671Z,97444.16
2022-12-29T04:46:18.047Z,97435.66
2022-12-29T04:49:15.969Z,97445.25
2022-12-29T04:52:11.419Z,97446.22
2022-12-29T04:54:41.796Z,97447.28
2022-12-29T04:57:16.197Z,97448.31
2022-12-29T04:59:47.319Z,97457.88
2022-12-29T05:02:17.306Z,97450.00
2022-12-29T05:04:48.569Z,97452.91
2022-12-29T05:07:18.487Z,97448.53
2022-12-29T05:09:50.131Z,97451.91
2022-12-29T05:12:19.042Z,97438.63
2022-12-29T05:14:59.888Z,97459.00
2022-12-29T05:17:28.720Z,97450.81
2022-12-29T05:19:57.653Z,97445.69
2022-12-29T05:22:27.292Z,97441.78
2022-12-29T05:24:58.658Z,97442.78
2022-12-29T05:27:27.859Z,97441.25
2022-12-29T05:30:13.503Z,97443.16
2022-12-29T05:32:42.757Z,97428.09
2022-12-29T05:35:11.544Z,97430.34
2022-12-29T05:37:40.187Z,97442.91
2022-12-29T05:40:13.144Z,97433.78
2022-12-29T05:42:42.662Z,97424.72
2022-12-29T05:45:31.108Z,97431.50
2022-12-29T05:48:25.909Z,97421.97
2022-12-29T05:51:20.827Z,97434.19
2022-12-29T05:53:51.597Z,97431.13
2022-12-29T05:56:21.745Z,97433.38
2022-12-29T05:58:56.836Z,97408.94
2022-12-29T06:01:26.328Z,97450.97
2022-12-29T06:03:56.549Z,97443.75
2022-12-29T06:06:25.301Z,97444.03
2022-12-29T06:08:55.013Z,97430.25
2022-12-29T06:11:25.087Z,97433.91
2022-12-29T06:13:57.583Z,97430.50
2022-12-29T06:16:26.854Z,97440.88
2022-12-29T06:18:59.758Z,97445.31
2022-12-29T06:21:28.395Z,97443.66
2022-12-29T06:23:57.037Z,97438.84
2022-12-29T06:26:27.038Z,97444.03
2022-12-29T06:28:55.689Z,97438.88
2022-12-29T06:31:24.744Z,97438.34
2022-12-29T06:33:53.747Z,97443.50
2022-12-29T06:36:22.293Z,97439.69
2022-12-29T06:38:53.417Z,97445.72
2022-12-29T06:41:26.922Z,97454.91
2022-12-29T06:44:32.501Z,97447.78
2022-12-29T06:47:08.520Z,97466.78
2022-12-29T06:49:37.321Z,97463.50
2022-12-29T06:52:12.516Z,97472.88
2022-12-29T06:54:41.737Z,97476.72
2022-12-29T06:57:10.245Z,97466.53
2022-12-29T06:59:40.286Z,97479.06
2022-12-29T07:02:09.393Z,97475.22
2022-12-29T07:04:38.067Z,97474.19
2022-12-29T07:07:06.595Z,97467.91
2022-12-29T07:09:35.780Z,97463.16
2022-12-29T07:12:04.489Z,97454.28
2022-12-29T07:14:39.051Z,97472.50
2022-12-29T07:17:12.663Z,97453.78
2022-12-29T07:19:41.242Z,97443.00
2022-12-29T07:22:11.469Z,97469.53
2022-12-29T07:24:41.480Z,97450.75
2022-12-29T07:27:11.477Z,97450.81
2022-12-29T07:29:40.309Z,97482.16
2022-12-29T07:32:08.919Z,97456.63
2022-12-29T07:34:40.622Z,97465.78
2022-12-29T07:37:09.474Z,97489.75
2022-12-29T07:39:38.037Z,97464.53
2022-12-29T07:42:06.702Z,97451.09
2022-12-29T07:44:46.360Z,97464.00
2022-12-29T07:47:18.541Z,97446.22
2022-12-29T07:49:48.625Z,97459.63
2022-12-29T07:52:17.451Z,97449.81
2022-12-29T07:54:46.350Z,97445.25
2022-12-29T07:57:15.052Z,97424.41
2022-12-29T07:59:44.336Z,97484.56
2022-12-29T08:02:13.495Z,97454.09
2022-12-29T08:04:42.332Z,97453.31
2022-12-29T08:07:12.398Z,97456.13
2022-12-29T08:09:41.232Z,97460.47
2022-12-29T08:12:12.624Z,97465.50
2022-12-29T08:14:41.369Z,97456.53
2022-12-29T08:17:10.025Z,97479.59
2022-12-29T08:19:38.983Z,97474.50
2022-12-29T08:22:07.739Z,97468.09
2022-12-29T08:24:37.849Z,97470.81
2022-12-29T08:27:14.670Z,97494.03
2022-12-29T08:29:48.567Z,97482.97
2022-12-29T08:32:18.040Z,97482.81
2022-12-29T08:34:48.012Z,97475.81
2022-12-29T08:37:16.843Z,97494.81
2022-12-29T08:39:46.919Z,97491.22
2022-12-29T08:42:16.001Z,97483.25
2022-12-29T08:44:44.818Z,97492.66
2022-12-29T08:47:14.496Z,97488.88
2022-12-29T08:49:43.092Z,97483.72
2022-12-29T08:52:11.801Z,97484.34
2022-12-29T08:54:40.505Z,97485.38
2022-12-29T08:57:10.783Z,97477.59
2022-12-29T08:59:47.451Z,97471.22
2022-12-29T09:02:23.854Z,97473.88
2022-12-29T09:04:54.605Z,97478.28
2022-12-29T09:07:23.572Z,97486.69
2022-12-29T09:09:52.957Z,97475.97
2022-12-29T09:12:23.099Z,97498.19
2022-12-29T09:14:52.740Z,97494.41
2022-12-29T09:17:38.873Z,97496.41
2022-12-29T09:20:09.756Z,97484.78
2022-12-29T09:22:38.797Z,97480.78
2022-12-29T09:25:09.363Z,97484.47
2022-12-29T09:27:39.781Z,97503.41
2022-12-29T09:30:12.309Z,97484.00
2022-12-29T09:32:45.099Z,97481.22
2022-12-29T09:35:15.046Z,97480.47
2022-12-29T09:37:43.839Z,97472.81
2022-12-29T09:40:27.344Z,97472.56
2022-12-29T09:43:33.951Z,97469.00
2022-12-29T09:46:19.499Z,97474.59
2022-12-29T09:48:58.049Z,97469.63
2022-12-29T09:51:28.090Z,97473.00
2022-12-29T09:54:03.751Z,97467.03
2022-12-29T09:56:32.526Z,97460.88
2022-12-29T09:59:14.373Z,97452.03
2022-12-29T10:01:51.655Z,97448.91
2022-12-29T10:04:20.652Z,97444.50
2022-12-29T10:10:04.121Z,97439.56
2022-12-29T10:12:52.641Z,97435.34
2022-12-29T10:15:42.667Z,97431.72
2022-12-29T10:18:40.058Z,97435.63
2022-12-29T10:21:24.599Z,97424.31
2022-12-29T10:23:55.727Z,97425.59
2022-12-29T10:26:31.141Z,97427.06
2022-12-29T10:29:05.882Z,97418.28
2022-12-29T10:31:43.535Z,97415.91
2022-12-29T10:34:22.849Z,97406.81
2022-12-29T10:37:01.211Z,97396.47
2022-12-29T10:39:39.149Z,97397.25
2022-12-29T10:42:15.951Z,97392.59
2022-12-29T10:44:44.992Z,97384.16
2022-12-29T10:47:23.112Z,97388.13
2022-12-29T10:49:53.016Z,97387.19
2022-12-29T10:52:25.129Z,97381.75
2022-12-29T10:55:01.233Z,97381.72
2022-12-29T10:57:36.110Z,97373.63
2022-12-29T11:00:16.113Z,97384.13
2022-12-29T11:03:14.833Z,97378.91
2022-12-29T11:05:51.865Z,97385.25
2022-12-29T11:08:26.715Z,97387.84
2022-12-29T11:11:03.141Z,97393.53
2022-12-29T11:13:38.874Z,97387.16
2022-12-29T11:16:08.779Z,97386.38
2022-12-29T11:18:43.574Z,97397.84
2022-12-29T11:21:34.407Z,97391.94
2022-12-29T11:24:05.387Z,97380.94
2022-12-29T11:26:35.405Z,97374.56
2022-12-29T11:29:25.318Z,97384.88
2022-12-29T11:31:57.018Z,97382.88
2022-12-29T11:34:33.807Z,97380.19
2022-12-29T11:37:08.684Z,97382.00
2022-12-29T11:39:47.025Z,97373.81
2022-12-29T11:42:20.303Z,97367.22
2022-12-29T11:44:52.174Z,97373.50
2022-12-29T11:47:33.378Z,97366.38
2022-12-29T11:50:09.230Z,97373.69
2022-12-29T11:52:41.722Z,97370.94
2022-12-29T11:55:23.031Z,97359.13
2022-12-29T11:57:57.834Z,97355.19
2022-12-29T12:00:35.405Z,97357.03
2022-12-29T12:03:14.548Z,97338.69
2022-12-29T12:05:53.742Z,97344.38
2022-12-29T12:08:35.778Z,97341.19
2022-12-29T12:11:14.204Z,97342.47
2022-12-29T12:14:01.708Z,97331.81
2022-12-29T12:16:53.574Z,97329.81
2022-12-29T12:19:41.525Z,97344.00
2022-12-29T12:22:24.526Z,97337.31
2022-12-29T12:25:01.360Z,97329.41
2022-12-29T12:27:41.107Z,97321.13
2022-12-29T12:30:19.131Z,97324.38
2022-12-29T12:32:57.726Z,97326.63
2022-12-29T12:35:39.694Z,97323.69
2022-12-29T12:38:33.460Z,97326.84
2022-12-29T12:41:19.798Z,97318.59
2022-12-29T12:43:59.893Z,97312.69
2022-12-29T12:47:20.621Z,97309.50
2022-12-29T12:50:34.453Z,97313.63
2022-12-29T12:53:39.241Z,97307.03
2022-12-29T12:56:28.919Z,97301.50
2022-12-29T12:59:10.320Z,97315.88
2022-12-29T13:01:53.198Z,97310.59
2022-12-29T13:04:46.388Z,97308.53
2022-12-29T13:07:29.430Z,97305.00
2022-12-29T13:10:21.622Z,97283.13
2022-12-29T13:13:14.616Z,97294.78
2022-12-29T13:15:52.649Z,97289.91
2022-12-29T13:18:34.088Z,97291.16
2022-12-29T13:21:15.852Z,97287.75
2022-12-29T13:23:57.867Z,97288.31
2022-12-29T13:26:34.818Z,97294.56
2022-12-29T13:29:18.458Z,97301.38
2022-12-29T13:31:58.544Z,97302.41
2022-12-29T13:34:46.763Z,97303.50
2022-12-29T13:37:20.657Z,97304.16
2022-12-29T13:39:57.383Z,97302.03
2022-12-29T13:42:28.548Z,97304.44
2022-12-29T13:45:04.314Z,97314.19
2022-12-29T13:47:39.840Z,97313.31
2022-12-29T13:50:18.014Z,97320.31
2022-12-29T13:52:56.670Z,97314.41
2022-12-29T13:55:34.271Z,97317.94
2022-12-29T13:58:11.595Z,97326.56
2022-12-29T14:00:54.119Z,97322.69
2022-12-29T14:03:51.910Z,97312.34
2022-12-29T14:06:28.680Z,97311.44
2022-12-29T14:09:01.748Z,97317.59
2022-12-29T14:11:37.480Z,97321.09
2022-12-29T14:14:19.741Z,97321.69
2022-12-29T14:16:51.359Z,97323.38
2022-12-29T14:19:28.398Z,97312.59
2022-12-29T14:22:01.746Z,97314.38
2022-12-29T14:24:43.314Z,97320.47
2022-12-29T14:27:54.839Z,97322.16
2022-12-29T14:31:00.644Z,97317.19
2022-12-29T14:33:34.292Z,97321.16
2022-12-29T14:36:23.301Z,97333.59
2022-12-29T14:38:52.164Z,97348.38
2022-12-29T14:41:31.237Z,97348.44
2022-12-29T14:44:12.580Z,97353.53
2022-12-29T14:46:56.644Z,97354.69
2022-12-29T14:49:31.877Z,97357.44
2022-12-29T14:52:16.368Z,97354.81
2022-12-29T14:54:55.872Z,97352.00
2022-12-29T14:57:34.958Z,97361.88
2022-12-29T15:00:21.738Z,97352.09
2022-12-29T15:03:04.773Z,97355.41
2022-12-29T15:05:43.578Z,97356.41
2022-12-29T15:08:15.346Z,97354.63
2022-12-29T15:10:53.643Z,97354.34
2022-12-29T15:13:27.507Z,97343.84
2022-12-29T15:15:56.407Z,97358.09
2022-12-29T15:18:28.798Z,97354.44
2022-12-29T15:21:02.728Z,97362.84
2022-12-29T15:23:35.764Z,97365.22
2022-12-29T15:26:09.738Z,97365.16
2022-12-29T15:28:44.021Z,97366.50
2022-12-29T15:31:17.220Z,97372.69
2022-12-29T15:33:49.526Z,97371.13
2022-12-29T15:36:25.394Z,97370.03
2022-12-29T15:38:55.138Z,97362.56
2022-12-29T15:41:57.091Z,97362.72
2022-12-29T15:44:32.190Z,97360.03
2022-12-29T15:47:05.204Z,97353.81
2022-12-29T15:49:34.637Z,97360.69
2022-12-29T15:52:09.776Z,97365.31
2022-12-29T15:54:40.022Z,97359.94
2022-12-29T15:57:25.737Z,97360.59
2022-12-29T15:59:55.891Z,97363.66
2022-12-29T16:02:26.456Z,97370.53
2022-12-29T16:07:58.155Z,97372.16
2022-12-29T16:10:37.819Z,97371.56
2022-12-29T16:13:20.164Z,97364.56
2022-12-29T16:15:50.158Z,97369.19
2022-12-29T16:18:28.365Z,97376.03
2022-12-29T16:20:59.410Z,97371.56
2022-12-29T16:23:31.971Z,97369.81
2022-12-29T16:26:01.583Z,97378.91
2022-12-29T16:28:43.125Z,97381.13
2022-12-29T16:31:23.768Z,97373.00
2022-12-29T16:33:55.116Z,97384.59
2022-12-29T16:36:36.030Z,97385.88
2022-12-29T16:39:38.658Z,97383.47
2022-12-29T16:42:51.920Z,97386.47
2022-12-29T16:46:18.675Z,97381.06
2022-12-29T16:48:53.577Z,97372.75
2022-12-29T16:51:37.485Z,97368.63
2022-12-29T16:54:08.309Z,97369.56
2022-12-29T16:56:39.810Z,97367.31
2022-12-29T16:59:25.941Z,97381.63
2022-12-29T17:01:54.696Z,97378.22
2022-12-29T17:04:23.479Z,97378.34
2022-12-29T17:06:52.013Z,97372.78
2022-12-29T17:09:23.262Z,97369.22
2022-12-29T17:12:02.600Z,97377.66
2022-12-29T17:14:44.269Z,97379.72
2022-12-29T17:17:22.725Z,97383.38
2022-12-29T17:19:59.745Z,97397.22
2022-12-29T17:22:32.719Z,97395.16
2022-12-29T17:25:04.050Z,97394.34
2022-12-29T17:27:39.971Z,97382.56
2022-12-29T17:30:15.681Z,97383.97
2022-12-29T17:32:48.394Z,97387.97
2022-12-29T17:35:18.749Z,97391.63
2022-12-29T17:37:48.037Z,97392.31
2022-12-29T17:40:20.200Z,97399.03
2022-12-29T17:42:54.543Z,97388.47
2022-12-29T17:45:27.466Z,97385.78
2022-12-29T17:47:56.815Z,97383.78
2022-12-29T17:50:29.817Z,97388.72
2022-12-29T17:53:04.160Z,97385.25
2022-12-29T17:55:38.538Z,97377.31
2022-12-29T17:58:21.629Z,97385.75
2022-12-29T18:00:53.818Z,97380.81
2022-12-29T18:03:29.439Z,97375.41
2022-12-29T18:05:59.284Z,97385.59
2022-12-29T18:08:29.469Z,97388.94
2022-12-29T18:10:59.863Z,97382.25
2022-12-29T18:13:45.539Z,97376.81
2022-12-29T18:16:15.983Z,97370.09
2022-12-29T18:18:46.222Z,97378.69
2022-12-29T18:21:19.547Z,97379.66
2022-12-29T18:23:49.519Z,97383.47
2022-12-29T18:26:28.049Z,97367.19
2022-12-29T18:29:00.157Z,97375.69
2022-12-29T18:31:31.101Z,97368.19
2022-12-29T18:34:02.208Z,97369.31
2022-12-29T18:36:30.977Z,97380.50
2022-12-29T18:38:59.914Z,97384.78
2022-12-29T18:41:30.748Z,97378.06
2022-12-29T18:44:01.705Z,97379.66
2022-12-29T18:46:31.146Z,97380.63
2022-12-29T18:48:59.904Z,97384.78
2022-12-29T18:51:29.285Z,97383.97
2022-12-29T18:53:58.245Z,97389.41
2022-12-29T18:56:27.300Z,97389.72
2022-12-29T18:58:56.887Z,97395.00
2022-12-29T19:01:31.241Z,97393.38
2022-12-29T19:04:00.448Z,97396.56
2022-12-29T19:06:29.527Z,97401.34
2022-12-29T19:08:58.488Z,97404.41
2022-12-29T19:11:27.694Z,97417.31
2022-12-29T19:13:56.769Z,97404.34
2022-12-29T19:16:27.208Z,97408.84
2022-12-29T19:19:09.082Z,97415.69
2022-12-29T19:21:39.269Z,97413.78
2022-12-29T19:24:08.504Z,97420.84
2022-12-29T19:26:40.584Z,97431.69
2022-12-29T19:29:16.335Z,97450.34
2022-12-29T19:31:47.875Z,97451.78
2022-12-29T19:34:18.603Z,97444.78
2022-12-29T19:36:48.097Z,97447.31
2022-12-29T19:39:17.034Z,97449.72
2022-12-29T19:41:45.905Z,97444.28
2022-12-29T19:44:14.852Z,97445.56
2022-12-29T19:46:43.552Z,97441.28
2022-12-29T19:49:14.282Z,97439.19
2022-12-29T19:51:42.895Z,97433.28
2022-12-29T19:54:11.668Z,97441.59
2022-12-29T19:56:43.320Z,97438.69
2022-12-29T19:59:12.512Z,97434.84
2022-12-29T20:01:41.390Z,97438.66
2022-12-29T20:04:10.267Z,97430.88
2022-12-29T20:06:40.433Z,97432.59
2022-12-29T20:09:09.108Z,97433.69
2022-12-29T20:11:38.048Z,97430.53
2022-12-29T20:14:06.917Z,97440.53
2022-12-29T20:21:06.819Z,97445.59
2022-12-29T20:23:39.613Z,97444.00
2022-12-29T20:26:09.974Z,97450.53
2022-12-29T20:28:38.390Z,97443.41
2022-12-29T20:31:14.495Z,97448.19
2022-12-29T20:33:43.320Z,97451.03
2022-12-29T20:36:16.131Z,97442.00
2022-12-29T20:38:47.479Z,97442.47
2022-12-29T20:41:16.512Z,97447.75
2022-12-29T20:43:45.073Z,97449.47
2022-12-29T20:46:18.161Z,97447.09
2022-12-29T20:48:49.378Z,97447.41
2022-12-29T20:51:18.305Z,97440.72
2022-12-29T20:53:49.357Z,97441.50
2022-12-29T20:56:24.617Z,97449.81
2022-12-29T21:01:43.912Z,97442.44
2022-12-29T21:04:13.637Z,97437.16
2022-12-29T21:06:42.128Z,97434.19
2022-12-29T21:09:12.080Z,97432.06
2022-12-29T21:11:40.890Z,97432.72
2022-12-29T21:14:09.621Z,97437.81
2022-12-29T21:16:38.257Z,97436.09
2022-12-29T21:19:06.956Z,97432.56
2022-12-29T21:21:35.783Z,97434.81
2022-12-29T21:24:06.369Z,97441.81
2022-12-29T21:26:36.387Z,97437.22
2022-12-29T21:29:05.268Z,97436.25
2022-12-29T21:31:36.083Z,97436.41
2022-12-29T21:34:06.736Z,97442.13
2022-12-29T21:36:35.732Z,97443.09
2022-12-29T21:39:05.082Z,97441.25
2022-12-29T21:41:35.593Z,97442.41
2022-12-29T21:44:21.557Z,97443.22
2022-12-29T21:46:49.934Z,97456.00
2022-12-29T21:49:18.401Z,97464.13
2022-12-29T21:51:54.016Z,97462.63
2022-12-29T21:54:43.434Z,97465.03
2022-12-29T21:58:26.434Z,97451.56
2022-12-29T22:01:14.826Z,97451.03
2022-12-29T22:04:00.951Z,97456.84
2022-12-29T22:06:47.524Z,97461.19
2022-12-29T22:09:37.389Z,97461.78
2022-12-29T22:12:28.106Z,97467.81
2022-12-29T22:14:56.643Z,97462.31
2022-12-29T22:17:28.872Z,97457.41
2022-12-29T22:19:58.081Z,97458.19
2022-12-29T22:22:26.582Z,97467.13
2022-12-29T22:24:55.120Z,97472.72
2022-12-29T22:27:23.514Z,97470.84
2022-12-29T22:29:51.935Z,97468.00
2022-12-29T22:32:20.808Z,97480.25
2022-12-29T22:34:50.735Z,97486.78
2022-12-29T22:37:19.702Z,97489.16
2022-12-29T22:39:48.153Z,97496.34
2022-12-29T22:42:16.775Z,97490.88
2022-12-29T22:44:45.321Z,97490.25
2022-12-29T22:47:13.909Z,97496.03
2022-12-29T22:49:42.456Z,97490.97
2022-12-29T22:52:14.405Z,97495.25
2022-12-29T22:54:42.969Z,97489.03
2022-12-29T22:57:11.483Z,97493.53
2022-12-29T22:59:40.136Z,97501.66
2022-12-29T23:02:08.906Z,97496.66
2022-12-29T23:07:27.703Z,97509.72
2022-12-29T23:09:56.278Z,97523.66
2022-12-29T23:12:24.746Z,97527.00
2022-12-29T23:14:53.157Z,97532.13
2022-12-29T23:17:21.627Z,97543.56
2022-12-29T23:19:50.071Z,97556.44
2022-12-29T23:22:18.576Z,97574.38
2022-12-29T23:24:48.409Z,97576.91
2022-12-29T23:27:16.914Z,97584.09
2022-12-29T23:29:45.571Z,97577.97
2022-12-29T23:32:14.128Z,97578.13
2022-12-29T23:34:42.574Z,97588.81
2022-12-29T23:37:11.409Z,97590.81
2022-12-29T23:39:40.067Z,97585.66
2022-12-29T23:42:11.275Z,97601.59
2022-12-29T23:44:39.754Z,97608.22
2022-12-29T23:47:08.368Z,97613.31
2022-12-29T23:49:36.891Z,97616.31
2022-12-29T23:52:05.355Z,97631.03
2022-12-29T23:54:34.127Z,97640.81
2022-12-29T23:57:02.603Z,97629.50
2022-12-29T23:59:32.728Z,97631.84
